createdAt,value
2018-03-12T00:01:38.608Z,8.10
2018-03-12T00:04:06.834Z,8.10
2018-03-12T00:06:36.579Z,8.20
2018-03-12T00:09:05.617Z,8.40
2018-03-12T00:11:33.904Z,8.40
2018-03-12T00:14:03.037Z,8.40
2018-03-12T00:16:31.276Z,8.40
2018-03-12T00:18:59.536Z,8.40
2018-03-12T00:21:27.770Z,8.40
2018-03-12T00:23:56.794Z,8.50
2018-03-12T00:26:25.041Z,8.50
2018-03-12T00:28:55.958Z,8.70
2018-03-12T00:31:24.222Z,8.70
2018-03-12T00:33:54.612Z,8.90
2018-03-12T00:36:22.876Z,9.00
2018-03-12T00:38:51.474Z,9.10
2018-03-12T00:41:19.694Z,9.10
2018-03-12T00:43:47.947Z,9.20
2018-03-12T00:46:16.221Z,9.30
2018-03-12T00:48:44.451Z,9.30
2018-03-12T00:51:12.722Z,9.40
2018-03-12T00:53:41.761Z,9.40
2018-03-12T00:56:10.790Z,9.40
2018-03-12T00:58:39.010Z,9.40
2018-03-12T01:01:07.275Z,9.40
2018-03-12T01:03:36.322Z,9.50
2018-03-12T01:06:04.567Z,9.50
2018-03-12T01:08:32.825Z,9.30
2018-03-12T01:11:01.158Z,9.30
2018-03-12T01:13:29.418Z,9.10
2018-03-12T01:15:57.665Z,9.00
2018-03-12T01:18:28.794Z,8.80
2018-03-12T01:20:57.034Z,8.80
2018-03-12T01:23:25.286Z,8.80
2018-03-12T01:25:53.538Z,8.70
2018-03-12T01:28:21.758Z,8.60
2018-03-12T01:30:50.002Z,8.50
2018-03-12T01:33:19.013Z,8.40
2018-03-12T01:35:47.304Z,8.40
2018-03-12T01:38:15.574Z,8.40
2018-03-12T01:40:43.856Z,8.40
2018-03-12T01:43:12.127Z,8.30
2018-03-12T01:45:40.382Z,8.20
2018-03-12T01:48:09.416Z,8.10
2018-03-12T01:50:38.028Z,8.10
2018-03-12T01:53:06.265Z,8.10
2018-03-12T01:55:34.517Z,8.00
2018-03-12T01:58:03.542Z,8.00
2018-03-12T02:00:31.789Z,8.00
2018-03-12T02:03:00.833Z,7.90
2018-03-12T02:05:29.074Z,7.90
2018-03-12T02:07:57.321Z,7.90
2018-03-12T02:10:27.887Z,7.90
2018-03-12T02:12:56.148Z,7.90
2018-03-12T02:15:25.208Z,7.90
2018-03-12T02:17:53.468Z,7.90
2018-03-12T02:20:21.744Z,7.80
2018-03-12T02:22:49.982Z,7.90
2018-03-12T02:25:18.987Z,8.00
2018-03-12T02:27:47.243Z,8.00
2018-03-12T02:30:16.251Z,8.00
2018-03-12T02:32:44.514Z,8.00
2018-03-12T02:35:12.770Z,8.10
2018-03-12T02:37:41.077Z,8.10
2018-03-12T02:40:09.338Z,8.10
2018-03-12T02:42:38.350Z,8.20
2018-03-12T02:45:06.658Z,8.20
2018-03-12T02:47:34.883Z,8.20
2018-03-12T02:50:03.948Z,8.10
2018-03-12T02:52:32.176Z,8.00
2018-03-12T02:55:00.431Z,8.10
2018-03-12T02:57:29.444Z,8.10
2018-03-12T02:59:57.806Z,8.10
2018-03-12T03:02:26.132Z,8.00
2018-03-12T03:04:55.096Z,8.00
2018-03-12T03:07:24.138Z,8.00
2018-03-12T03:09:52.377Z,8.00
2018-03-12T03:12:20.638Z,8.00
2018-03-12T03:14:49.666Z,8.00
2018-03-12T03:17:17.990Z,8.00
2018-03-12T03:19:46.201Z,8.10
2018-03-12T03:22:14.450Z,8.10
2018-03-12T03:24:42.711Z,8.20
2018-03-12T03:27:10.939Z,8.20
2018-03-12T03:29:39.202Z,8.10
2018-03-12T03:32:08.186Z,7.80
2018-03-12T03:34:37.221Z,7.90
2018-03-12T03:37:05.462Z,7.90
2018-03-12T03:39:34.481Z,8.00
2018-03-12T03:42:02.785Z,8.00
2018-03-12T03:44:31.055Z,8.00
2018-03-12T03:46:59.323Z,7.90
2018-03-12T03:49:27.541Z,7.90
2018-03-12T03:51:55.813Z,7.90
2018-03-12T03:54:24.044Z,7.80
2018-03-12T03:56:52.287Z,7.80
2018-03-12T03:59:21.295Z,7.70
2018-03-12T04:01:50.354Z,7.80
2018-03-12T04:04:18.610Z,7.70
2018-03-12T04:06:46.848Z,7.80
2018-03-12T04:09:17.206Z,7.80
2018-03-12T04:11:45.477Z,7.70
2018-03-12T04:14:13.754Z,7.70
2018-03-12T04:16:41.974Z,7.60
2018-03-12T04:19:10.254Z,7.60
2018-03-12T04:21:38.969Z,7.70
2018-03-12T04:24:08.015Z,7.60
2018-03-12T04:26:36.246Z,7.60
2018-03-12T04:29:04.520Z,7.60
2018-03-12T04:31:33.554Z,7.60
2018-03-12T04:34:01.790Z,7.50
2018-03-12T04:36:30.795Z,7.60
2018-03-12T04:38:59.043Z,7.60
2018-03-12T04:41:27.297Z,7.70
2018-03-12T04:43:55.551Z,7.80
2018-03-12T04:46:23.877Z,7.80
2018-03-12T04:48:52.101Z,7.70
2018-03-12T04:51:20.330Z,7.60
2018-03-12T04:53:49.354Z,7.60
2018-03-12T04:56:17.623Z,7.60
2018-03-12T04:58:45.912Z,7.60
2018-03-12T05:01:14.151Z,7.70
2018-03-12T05:03:42.415Z,7.60
2018-03-12T05:06:10.729Z,7.70
2018-03-12T05:08:39.013Z,7.80
2018-03-12T05:11:08.009Z,7.70
2018-03-12T05:13:37.036Z,7.70
2018-03-12T05:16:05.302Z,7.70
2018-03-12T05:18:33.594Z,7.70
2018-03-12T05:21:01.847Z,7.70
2018-03-12T05:23:30.105Z,7.60
2018-03-12T05:25:58.462Z,7.70
2018-03-12T05:28:28.727Z,7.80
2018-03-12T05:30:59.286Z,7.90
2018-03-12T05:33:29.628Z,7.90
2018-03-12T05:35:58.771Z,7.80
2018-03-12T05:38:27.718Z,7.70
2018-03-12T05:40:55.961Z,7.60
2018-03-12T05:43:24.212Z,7.50
2018-03-12T05:45:53.237Z,7.60
2018-03-12T05:48:21.483Z,7.60
2018-03-12T05:53:25.072Z,7.80
2018-03-12T05:55:53.385Z,7.80
2018-03-12T05:58:21.621Z,7.90
2018-03-12T06:00:49.898Z,7.90
2018-03-12T06:03:18.154Z,7.80
2018-03-12T06:05:46.429Z,7.80
2018-03-12T06:08:14.704Z,7.90
2018-03-12T06:10:43.131Z,7.90
2018-03-12T06:13:11.422Z,7.80
2018-03-12T06:15:39.690Z,7.70
2018-03-12T06:18:08.713Z,7.90
2018-03-12T06:20:36.969Z,7.80
2018-03-12T06:23:06.108Z,8.00
2018-03-12T06:25:35.909Z,7.90
2018-03-12T06:28:04.189Z,8.00
2018-03-12T06:30:32.431Z,8.00
2018-03-12T06:33:01.474Z,8.00
2018-03-12T06:35:29.737Z,8.00
2018-03-12T06:37:57.986Z,8.00
2018-03-12T06:40:27.042Z,8.10
2018-03-12T06:42:55.361Z,8.10
2018-03-12T06:45:25.155Z,8.10
2018-03-12T06:47:53.398Z,8.10
2018-03-12T06:50:21.632Z,8.20
2018-03-12T06:52:50.670Z,8.30
2018-03-12T06:55:18.903Z,8.30
2018-03-12T06:57:51.675Z,8.30
2018-03-12T07:00:19.929Z,8.30
2018-03-12T07:02:48.177Z,8.40
2018-03-12T07:05:16.438Z,8.40
2018-03-12T07:07:44.698Z,8.50
2018-03-12T07:10:13.738Z,8.40
2018-03-12T07:12:41.965Z,8.40
2018-03-12T07:15:10.987Z,8.40
2018-03-12T07:17:39.208Z,8.40
2018-03-12T07:20:07.467Z,8.40
2018-03-12T07:22:35.701Z,8.40
2018-03-12T07:25:04.740Z,8.40
2018-03-12T07:27:33.021Z,8.40
2018-03-12T07:30:01.254Z,8.40
2018-03-12T07:32:30.865Z,8.40
2018-03-12T07:34:59.896Z,8.60
2018-03-12T07:37:28.134Z,8.60
2018-03-12T07:39:56.416Z,8.70
2018-03-12T07:42:29.369Z,8.80
2018-03-12T07:44:57.612Z,8.80
2018-03-12T07:47:25.893Z,8.90
2018-03-12T07:53:04.448Z,9.10
2018-03-12T07:55:32.706Z,9.00
2018-03-12T07:58:01.050Z,9.20
2018-03-12T08:00:30.041Z,9.20
2018-03-12T08:02:58.327Z,9.20
2018-03-12T08:08:36.346Z,9.40
2018-03-12T08:11:05.388Z,9.70
2018-03-12T08:13:33.719Z,9.70
2018-03-12T08:16:01.946Z,9.70
2018-03-12T08:18:30.194Z,9.70
2018-03-12T08:20:58.468Z,9.90
2018-03-12T08:23:26.727Z,9.90
2018-03-12T08:25:55.780Z,10.00
2018-03-12T08:28:24.031Z,10.00
2018-03-12T08:30:52.774Z,10.10
2018-03-12T08:33:21.867Z,10.20
2018-03-12T08:35:50.070Z,10.20
2018-03-12T08:38:19.112Z,10.40
2018-03-12T08:40:47.367Z,10.40
2018-03-12T08:43:17.101Z,10.60
2018-03-12T08:45:45.409Z,10.70
2018-03-12T08:48:13.702Z,10.90
2018-03-12T08:50:42.886Z,11.20
2018-03-12T08:53:12.636Z,11.30
2018-03-12T08:55:40.928Z,11.30
2018-03-12T08:58:09.274Z,11.30
2018-03-12T09:00:38.314Z,11.60
2018-03-12T09:03:06.562Z,11.60
2018-03-12T09:05:34.881Z,11.80
2018-03-12T09:08:03.187Z,11.60
2018-03-12T09:10:31.406Z,11.50
2018-03-12T09:12:59.674Z,11.60
2018-03-12T09:15:27.918Z,11.60
2018-03-12T09:17:56.948Z,11.90
2018-03-12T09:20:25.211Z,11.90
2018-03-12T09:22:53.460Z,11.80
2018-03-12T09:25:21.697Z,12.00
2018-03-12T09:27:49.955Z,12.00
2018-03-12T09:30:18.243Z,11.80
2018-03-12T09:32:46.525Z,12.00
2018-03-12T09:35:15.518Z,12.10
2018-03-12T09:37:43.811Z,12.10
2018-03-12T09:40:12.134Z,12.20
2018-03-12T09:42:41.159Z,12.20
2018-03-12T09:45:09.445Z,12.20
2018-03-12T09:47:37.702Z,12.20
2018-03-12T09:50:06.725Z,12.10
2018-03-12T09:52:34.968Z,12.10
2018-03-12T09:55:04.027Z,12.10
2018-03-12T09:57:32.275Z,12.10
2018-03-12T10:00:00.671Z,12.10
2018-03-12T10:02:28.905Z,12.20
2018-03-12T10:04:57.193Z,12.30
2018-03-12T10:07:25.452Z,12.20
2018-03-12T10:09:54.476Z,12.30
2018-03-12T10:12:22.733Z,12.20
2018-03-12T10:14:50.981Z,12.30
2018-03-12T10:17:19.238Z,12.40
2018-03-12T10:19:47.478Z,12.50
2018-03-12T10:22:15.758Z,12.70
2018-03-12T10:24:44.033Z,12.70
2018-03-12T10:27:12.305Z,12.60
2018-03-12T10:29:40.643Z,12.40
2018-03-12T10:32:11.539Z,12.10
2018-03-12T10:34:39.805Z,12.10
2018-03-12T10:37:08.050Z,12.10
2018-03-12T10:39:37.105Z,12.20
2018-03-12T10:42:05.354Z,12.20
2018-03-12T10:44:33.616Z,12.20
2018-03-12T10:47:01.877Z,12.20
2018-03-12T10:49:30.937Z,12.20
2018-03-12T10:51:59.654Z,12.20
2018-03-12T10:54:28.679Z,12.30
2018-03-12T10:56:56.922Z,12.40
2018-03-12T10:59:25.206Z,12.40
2018-03-12T11:02:04.959Z,12.50
2018-03-12T11:04:37.856Z,12.60
2018-03-12T11:07:10.854Z,12.80
2018-03-12T11:09:39.103Z,12.80
2018-03-12T11:12:08.602Z,12.90
2018-03-12T11:14:36.834Z,13.20
2018-03-12T11:17:05.103Z,13.30
2018-03-12T11:19:33.350Z,13.60
2018-03-12T11:22:02.378Z,13.80
2018-03-12T11:24:30.632Z,13.80
2018-03-12T11:26:59.640Z,13.90
2018-03-12T11:29:27.922Z,13.90
2018-03-12T11:31:56.161Z,14.00
2018-03-12T11:34:25.610Z,13.90
2018-03-12T11:36:53.821Z,13.90
2018-03-12T11:39:22.912Z,13.90
2018-03-12T11:41:51.185Z,13.90
2018-03-12T11:44:19.471Z,14.00
2018-03-12T11:46:47.699Z,14.00
2018-03-12T11:49:15.965Z,14.20
2018-03-12T11:51:44.221Z,14.50
2018-03-12T11:54:12.462Z,14.50
2018-03-12T11:56:40.759Z,14.50
2018-03-12T11:59:09.129Z,14.50
2018-03-12T12:01:37.395Z,14.70
2018-03-12T12:04:05.642Z,14.90
2018-03-12T12:06:33.899Z,15.10
2018-03-12T12:09:02.929Z,15.30
2018-03-12T12:11:31.213Z,15.20
2018-03-12T12:14:00.159Z,15.30
2018-03-12T12:16:28.394Z,15.20
2018-03-12T12:18:56.643Z,15.30
2018-03-12T12:21:25.669Z,15.20
2018-03-12T12:23:53.925Z,15.10
2018-03-12T12:26:22.185Z,15.00
2018-03-12T12:28:51.207Z,14.70
2018-03-12T12:31:19.493Z,14.70
2018-03-12T12:33:47.806Z,14.70
2018-03-12T12:36:16.046Z,14.60
2018-03-12T12:38:44.288Z,14.60
2018-03-12T12:41:13.365Z,14.50
2018-03-12T12:43:42.414Z,14.40
2018-03-12T12:46:10.756Z,14.30
2018-03-12T12:48:39.376Z,14.30
2018-03-12T12:51:07.557Z,14.40
2018-03-12T12:53:35.827Z,14.30
2018-03-12T12:56:04.109Z,14.40
2018-03-12T12:58:36.463Z,14.60
2018-03-12T13:01:04.716Z,14.80
2018-03-12T13:03:33.041Z,14.60
2018-03-12T13:06:02.088Z,14.50
2018-03-12T13:08:31.117Z,14.40
2018-03-12T13:10:59.388Z,14.40
2018-03-12T13:13:27.626Z,14.50
2018-03-12T13:15:55.919Z,14.50
2018-03-12T13:18:24.976Z,14.10
2018-03-12T13:20:53.223Z,14.10
2018-03-12T13:23:21.475Z,14.20
2018-03-12T13:25:49.757Z,14.30
2018-03-12T13:28:18.754Z,14.30
2018-03-12T13:30:47.395Z,14.30
2018-03-12T13:33:15.676Z,14.40
2018-03-12T13:35:43.980Z,14.50
2018-03-12T13:38:12.197Z,14.60
2018-03-12T13:40:40.463Z,14.30
2018-03-12T13:43:08.714Z,14.20
2018-03-12T13:45:37.430Z,14.10
2018-03-12T13:48:05.684Z,14.20
2018-03-12T13:50:33.951Z,14.30
2018-03-12T13:55:38.038Z,14.20
2018-03-12T13:58:06.341Z,14.20
2018-03-12T14:00:34.583Z,14.10
2018-03-12T14:03:02.853Z,14.10
2018-03-12T14:05:31.167Z,14.20
2018-03-12T14:07:59.443Z,14.40
2018-03-12T14:10:27.711Z,14.40
2018-03-12T14:12:55.950Z,14.30
2018-03-12T14:15:24.228Z,14.20
2018-03-12T14:17:52.674Z,14.30
2018-03-12T14:20:21.710Z,14.30
2018-03-12T14:22:49.965Z,14.30
2018-03-12T14:25:18.228Z,14.30
2018-03-12T14:27:47.273Z,14.00
2018-03-12T14:30:15.602Z,13.80
2018-03-12T14:32:43.858Z,13.80
2018-03-12T14:35:12.134Z,14.10
2018-03-12T14:37:40.426Z,14.10
2018-03-12T14:40:09.162Z,13.90
2018-03-12T14:42:37.449Z,13.90
2018-03-12T14:45:05.725Z,13.90
2018-03-12T14:47:33.950Z,13.90
2018-03-12T14:50:02.982Z,13.80
2018-03-12T14:52:32.011Z,13.70
2018-03-12T14:55:00.274Z,13.70
2018-03-12T14:57:28.586Z,13.80
2018-03-12T14:59:56.911Z,13.90
2018-03-12T15:02:25.896Z,14.10
2018-03-12T15:04:54.127Z,14.10
2018-03-12T15:07:22.412Z,14.10
2018-03-12T15:09:50.673Z,14.10
2018-03-12T15:12:19.888Z,14.00
2018-03-12T15:14:48.125Z,14.00
2018-03-12T15:17:16.362Z,14.00
2018-03-12T15:19:45.411Z,13.90
2018-03-12T15:22:13.673Z,13.90
2018-03-12T15:24:41.923Z,14.00
2018-03-12T15:27:10.983Z,14.30
2018-03-12T15:29:39.293Z,14.30
2018-03-12T15:32:08.333Z,14.50
2018-03-12T15:34:36.588Z,14.40
2018-03-12T15:37:04.827Z,14.40
2018-03-12T15:39:33.883Z,14.30
2018-03-12T15:42:02.218Z,14.30
2018-03-12T15:44:30.448Z,14.30
2018-03-12T15:46:59.602Z,14.20
2018-03-12T15:49:28.668Z,14.20
2018-03-12T15:51:58.432Z,14.20
2018-03-12T15:54:26.689Z,14.20
2018-03-12T15:56:55.772Z,14.30
2018-03-12T15:59:24.806Z,14.40
2018-03-12T16:01:53.053Z,14.40
2018-03-12T16:04:21.305Z,14.30
2018-03-12T16:06:50.480Z,14.20
2018-03-12T16:09:18.746Z,14.20
2018-03-12T16:11:47.017Z,14.20
2018-03-12T16:14:15.278Z,14.20
2018-03-12T16:16:46.081Z,14.20
2018-03-12T16:19:15.207Z,14.20
2018-03-12T16:21:43.488Z,14.20
2018-03-12T16:24:11.785Z,14.20
2018-03-12T16:26:40.138Z,14.20
2018-03-12T16:29:09.155Z,14.00
2018-03-12T16:31:37.477Z,14.00
2018-03-12T16:34:05.742Z,13.90
2018-03-12T16:36:34.024Z,14.00
2018-03-12T16:39:02.464Z,13.90
2018-03-12T16:41:30.778Z,13.90
2018-03-12T17:05:03.588Z,13.10
2018-03-12T17:07:31.865Z,13.10
2018-03-12T17:10:00.165Z,13.00
2018-03-12T17:12:28.736Z,13.00
2018-03-12T17:14:57.048Z,12.90
2018-03-12T17:17:26.081Z,12.80
2018-03-12T17:19:54.441Z,12.80
2018-03-12T17:22:23.534Z,12.70
2018-03-12T17:24:52.572Z,12.70
2018-03-12T17:27:20.885Z,12.70
2018-03-12T17:29:49.135Z,12.70
2018-03-12T17:32:17.463Z,12.60
2018-03-12T17:34:46.484Z,12.70
2018-03-12T17:37:14.924Z,12.60
2018-03-12T17:39:43.216Z,12.50
2018-03-12T17:42:11.462Z,12.50
2018-03-12T17:44:39.790Z,12.40
2018-03-12T17:47:08.795Z,12.30
2018-03-12T17:49:37.991Z,12.30
2018-03-12T17:52:06.296Z,12.30
2018-03-12T17:54:34.590Z,12.20
2018-03-12T17:57:02.884Z,12.10
2018-03-12T17:59:31.114Z,12.10
2018-03-12T18:01:59.381Z,12.10
2018-03-12T18:04:27.659Z,12.30
2018-03-12T18:06:55.964Z,12.30
2018-03-12T18:09:24.210Z,12.30
2018-03-12T18:11:53.277Z,12.30
2018-03-12T18:14:22.310Z,12.30
2018-03-12T18:16:50.550Z,12.30
2018-03-12T18:19:19.654Z,12.20
2018-03-12T18:21:47.914Z,12.20
2018-03-12T18:24:16.974Z,12.10
2018-03-12T18:26:45.194Z,12.10
2018-03-12T18:29:13.458Z,12.10
2018-03-12T18:31:42.550Z,12.20
2018-03-12T18:34:10.840Z,12.10
2018-03-12T18:36:39.858Z,11.90
2018-03-12T18:39:08.280Z,11.90
2018-03-12T18:41:37.544Z,11.80
2018-03-12T18:44:06.588Z,11.60
2018-03-12T18:46:34.872Z,11.60
2018-03-12T18:49:03.410Z,11.40
2018-03-12T18:51:32.426Z,11.40
2018-03-12T18:54:00.689Z,11.30
2018-03-12T18:56:29.025Z,11.20
2018-03-12T18:58:58.091Z,11.10
2018-03-12T19:01:26.455Z,11.10
2018-03-12T19:03:54.696Z,11.00
2018-03-12T19:06:23.702Z,11.00
2018-03-12T19:08:51.994Z,11.00
2018-03-12T19:11:20.278Z,11.10
2018-03-12T19:13:48.601Z,11.00
2018-03-12T19:16:17.665Z,11.10
2018-03-12T19:18:45.926Z,11.10
2018-03-12T19:21:14.186Z,11.10
2018-03-12T19:23:43.183Z,11.10
2018-03-12T19:26:11.509Z,11.10
2018-03-12T19:28:39.753Z,11.10
2018-03-12T19:31:08.890Z,11.20
2018-03-12T19:33:37.934Z,11.20
2018-03-12T19:36:06.241Z,11.20
2018-03-12T19:38:34.500Z,11.10
2018-03-12T19:41:03.728Z,11.10
2018-03-12T19:43:32.127Z,11.10
2018-03-12T19:46:01.175Z,11.10
2018-03-12T19:48:29.428Z,11.10
2018-03-12T19:51:05.374Z,11.20
2018-03-12T19:53:34.424Z,11.10
2018-03-12T19:56:02.694Z,11.10
2018-03-12T19:58:32.438Z,11.00
2018-03-12T20:01:00.786Z,11.00
2018-03-12T20:03:29.125Z,10.90
2018-03-12T20:05:58.196Z,10.80
2018-03-12T20:08:28.527Z,10.80
2018-03-12T20:10:58.336Z,10.80
2018-03-12T20:13:28.834Z,10.80
2018-03-12T20:16:01.790Z,10.80
2018-03-12T20:18:44.973Z,10.90
2018-03-12T20:21:13.270Z,11.00
2018-03-12T20:23:42.346Z,10.90
2018-03-12T20:26:11.479Z,10.90
2018-03-12T20:28:40.631Z,10.90
2018-03-12T20:31:08.963Z,10.90
2018-03-12T20:33:38.080Z,11.00
2018-03-12T20:36:06.351Z,11.00
2018-03-12T20:38:34.603Z,10.90
2018-03-12T20:41:02.918Z,10.90
2018-03-12T20:43:31.320Z,10.80
2018-03-12T20:45:59.626Z,10.70
2018-03-12T20:48:27.968Z,10.70
2018-03-12T20:50:56.309Z,10.70
2018-03-12T20:53:25.398Z,10.60
2018-03-12T20:55:54.376Z,10.60
2018-03-12T20:58:22.708Z,10.60
2018-03-12T21:00:51.457Z,10.60
2018-03-12T21:03:20.501Z,10.60
2018-03-12T21:05:48.832Z,10.60
2018-03-12T21:08:17.861Z,10.70
2018-03-12T21:10:46.147Z,10.70
2018-03-12T21:13:14.925Z,10.70
2018-03-12T21:15:43.201Z,10.70
2018-03-12T21:18:11.542Z,10.60
2018-03-12T21:20:39.784Z,10.70
2018-03-12T21:23:08.033Z,10.70
2018-03-12T21:25:36.339Z,10.60
2018-03-12T21:28:04.599Z,10.70
2018-03-12T21:30:32.825Z,10.70
2018-03-12T21:33:01.888Z,10.70
2018-03-12T21:35:30.143Z,10.70
2018-03-12T21:37:58.406Z,10.80
2018-03-12T21:40:26.673Z,10.70
2018-03-12T21:42:55.809Z,10.60
2018-03-12T21:45:24.058Z,10.60
2018-03-12T21:47:52.305Z,10.50
2018-03-12T21:50:20.591Z,10.40
2018-03-12T21:52:49.662Z,10.40
2018-03-12T21:55:17.906Z,10.40
2018-03-12T21:57:46.171Z,10.40
2018-03-12T22:00:14.415Z,10.40
2018-03-12T22:02:43.469Z,10.30
2018-03-12T22:05:11.768Z,10.30
2018-03-12T22:07:40.020Z,10.40
2018-03-12T22:10:08.332Z,10.40
2018-03-12T22:12:36.631Z,10.40
2018-03-12T22:15:04.855Z,10.30
2018-03-12T22:17:33.276Z,10.30
2018-03-12T22:20:02.930Z,10.40
2018-03-12T22:22:31.214Z,10.40
2018-03-12T22:24:59.457Z,10.40
2018-03-12T22:27:27.733Z,10.40
2018-03-12T22:29:56.017Z,10.40
2018-03-12T22:32:24.263Z,10.40
2018-03-12T22:34:53.278Z,10.30
2018-03-12T22:37:21.530Z,10.30
2018-03-12T22:39:49.812Z,10.30
2018-03-12T22:42:18.044Z,10.30
2018-03-12T22:44:46.369Z,10.30
2018-03-12T22:47:14.627Z,10.40
2018-03-12T22:49:42.861Z,10.40
2018-03-12T22:52:11.145Z,10.30
2018-03-12T22:54:39.404Z,10.20
2018-03-12T22:57:08.414Z,10.10
2018-03-12T22:59:36.647Z,10.00
2018-03-12T23:02:05.653Z,10.00
2018-03-12T23:04:34.664Z,9.90
2018-03-12T23:07:03.659Z,9.90
2018-03-12T23:09:32.049Z,9.90
2018-03-12T23:12:00.310Z,9.90
2018-03-12T23:14:28.583Z,9.80
2018-03-12T23:16:57.591Z,9.80
2018-03-12T23:19:25.855Z,9.80
2018-03-12T23:21:54.858Z,9.80
2018-03-12T23:24:23.202Z,9.80
2018-03-12T23:26:51.474Z,9.70
2018-03-12T23:29:19.697Z,9.80
2018-03-12T23:31:48.065Z,9.80
2018-03-12T23:34:17.056Z,9.80
2018-03-12T23:36:46.078Z,9.80
2018-03-12T23:39:14.307Z,9.70
2018-03-12T23:41:42.565Z,9.80
2018-03-12T23:44:10.842Z,9.70
2018-03-12T23:46:39.105Z,9.70
2018-03-12T23:49:07.343Z,9.70
2018-03-12T23:51:36.353Z,9.60
2018-03-12T23:54:04.604Z,9.60
2018-03-12T23:56:33.612Z,9.60
2018-03-12T23:59:02.643Z,9.60
